Pagrindinis puslapis
METAR-TAF:

METAR-TAF

Oro uostai :

Bariločė, Argentina

platuma: 41-09S, ilguma: 071-10W, Aukštis: 845 m

Dabartinis oras

Ataskaita buvo paskelbta 27 minutes, ne 21:00 UTC
Vėjas 11 kt iš Rytų, svyruoja nuo Rytų/Šiaurės Rytų ir Pietryčių
Temperatūra 23°C
Drėgmė 9%
Slėgis 1022 hPa
Matomumas 10 km arba daugiau
nėra debesų žemiau 1500 m ir nėra kamuolinių lietaus debesų

METAR: SAZS 202100Z 10011KT 070V130 CAVOK 23/M12 Q1022

Laikas: 18:27 (21:27 UTC)

Prognozė

Ataskaita buvo paskelbta 4 valandos ir 27 minutes, ne 17:00 UTC
Prognozė galioja nuo 20 metu 18 UTC su 21 metu 18 UTC
Vėjas 15 kt iš Rytų
Matomumas 10 km arba daugiau
nėra debesų žemiau 1500 m ir nėra kamuolinių lietaus debesų
Tapsmas
nuo 21 metu 04 UTC su 21 metu 06 UTC
Vėjas 10 kt iš Pietryčių
Tapsmas
nuo 21 metu 13 UTC su 21 metu 15 UTC
Vėjas 15 kt iš Rytų/Šiaurės Rytų

TAF: SAZS 201700Z 2018/2118 09015KT CAVOK TX23/2020Z TN07/2110Z BECMG 2104/2106 14010KT BECMG 2113/2115 07015KT

Orai ataskaitas ir orų prognozės (METAR, TAF).

turimą stotys yra geltonos ir raudonos taškus žemėlapyje.

Perkelti pele per norėdami pamatyti stoties vardą.

Tada spustelėkite, norėdami matyti oro stebėjimo ir prognozės.

Norėdami pakeisti žemėlapį: spustelėkite ant žalios mygtukų su juodo kryžiaus žemyn,; žalią mygtuką su brūkšneliu, jei norite nutolinti; arba žalių rodyklių gretimoms žemėlapius.


METAR-TAF: